Prairie Dawn — WDC2117 — position and weather

sailwx.info

Track history (hours):
 
Tides and Currents Weather Stations Pressure Air Temp Water Temp Dewpoint Dewpoint Depression Visibility Wind Speed Wind Dir Waves Ship Positions

Prairie Dawn

Owner: American River Transportation Company, St Louis, MO. More information available from US FCC via Universal Licensing System and Coast Guard Vessel Documentation Center.

Last reported at 2017-Sep-10 03:11 UTC. Time now 2017-Sep-22 22:41 UTC.
Position N 40°42' W 091°07'.
Warning: this ship's position is 12 days out of date.

Length 33 m; draft 2.7 m.

Type: Towing. MMSI: 366988190.

Date/timePositionNaut miles runAvg speedWind from/ knotsBaromVisibWave heightAir tempDewpointWater temp
2017-Sep-10 03:11N 40°42' W 091°07'1 4.7
2017-Sep-10 02:54N 40°43' W 091°07'2 4.8
2017-Sep-10 02:29N 40°45' W 091°06'2 4.8
2017-Sep-10 02:00N 40°47' W 091°06'2 4.8
2017-Sep-10 01:30N 40°50' W 091°05'2 4.4
2017-Sep-10 01:00N 40°52' W 091°03'2 3.7
2017-Sep-10 00:30N 40°53' W 091°01'0 0.8
2017-Sep-10 00:00N 40°53' W 091°01'0 0.3
2017-Sep-09 23:30N 40°53' W 091°01'0 0.0
2017-Sep-09 23:00N 40°53' W 091°01'0 0.0
2017-Sep-09 22:30N 40°53' W 091°01'1 2.2
2017-Sep-09 22:00N 40°54' W 091°00'2 4.5
2017-Sep-09 21:30N 40°55' W 090°58'3 5.1
2017-Sep-09 21:00N 40°58' W 090°57'2 4.9
2017-Sep-09 20:30N 41°00' W 090°57'3 5.2
2017-Sep-09 20:00N 41°03' W 090°57'3 4.9
2017-Sep-09 19:30N 41°05' W 090°57'2 0.7
2017-Sep-09 16:24N 41°07' W 090°58'2 4.1
2017-Sep-09 16:00N 41°06' W 090°57'2 4.2
2017-Sep-09 15:28N 41°04' W 090°57'2 4.3
2017-Sep-09 14:55N 41°01' W 090°57'2 4.2
2017-Sep-09 14:30N 40°60' W 090°57'1 2.6
2017-Sep-09 14:00N 40°58' W 090°58'2 3.1
2017-Sep-09 13:30N 40°57' W 090°57'2 4.3
2017-Sep-09 13:00N 40°55' W 090°58'2 4.7
2017-Sep-09 12:30N 40°54' W 091°01'1 2.0
2017-Sep-09 11:59N 40°53' W 091°02'2 4.4
2017-Sep-09 11:30N 40°51' W 091°03'2 3.1
2017-Sep-09 11:00N 40°50' W 091°05'0 0.1
2017-Sep-09 10:30N 40°50' W 091°05'2 3.6
2017-Sep-09 10:00N 40°48' W 091°06'2 4.4
2017-Sep-09 09:30N 40°46' W 091°06'2 4.4
2017-Sep-09 09:00N 40°44' W 091°07'2 4.1
2017-Sep-09 08:30N 40°42' W 091°07'3 4.0
2017-Sep-09 07:40N 40°39' W 091°09'2 4.4
2017-Sep-09 07:19N 40°39' W 091°11'2 4.3
2017-Sep-09 06:51N 40°38' W 091°14'  
2017-Sep-06 11:48N 38°52' W 090°33'2 4.9
2017-Sep-06 11:29N 38°53' W 090°32'2 4.5
2017-Sep-06 11:00N 38°55' W 090°30'1 2.0
2017-Sep-06 10:30N 38°56' W 090°29'2 4.0
2017-Sep-06 10:00N 38°57' W 090°28'2 4.3
2017-Sep-06 09:30N 38°58' W 090°25'2 4.2
2017-Sep-06 09:00N 38°57' W 090°22'2 4.4
2017-Sep-06 08:30N 38°56' W 090°20'2 4.3
2017-Sep-06 08:00N 38°55' W 090°17'2 4.5
2017-Sep-06 07:30N 38°55' W 090°14'2 4.5
2017-Sep-06 07:00N 38°54' W 090°12'2 4.5
2017-Sep-06 06:29N 38°52' W 090°10'3 0.1
2017-Sep-04 16:04N 38°54' W 090°13'2 3.8
2017-Sep-04 15:40N 38°55' W 090°14'1 2.9
2017-Sep-04 15:27N 38°55' W 090°15'0 0.0
2017-Sep-04 13:01N 38°55' W 090°15'0 0.0
2017-Sep-04 12:56N 38°55' W 090°15'0 0.0
2017-Sep-04 12:27N 38°55' W 090°15'0 0.0
2017-Sep-04 11:58N 38°55' W 090°15'0 0.0
2017-Sep-04 11:28N 38°55' W 090°15'0 0.0
2017-Sep-04 10:58N 38°55' W 090°15'0 0.0
2017-Sep-04 10:30N 38°55' W 090°15'0 0.0
2017-Sep-04 09:58N 38°55' W 090°15'0 0.0
2017-Sep-04 09:29N 38°55' W 090°15'0 0.0
2017-Sep-04 09:00N 38°55' W 090°15'0 0.0
2017-Sep-04 08:30N 38°55' W 090°15'0 0.0
2017-Sep-04 08:00N 38°55' W 090°15'0 0.0
2017-Sep-04 07:29N 38°55' W 090°15'0 0.0
2017-Sep-04 06:58N 38°55' W 090°15'0 0.0
2017-Sep-04 06:21N 38°55' W 090°15'0 0.0
2017-Sep-04 05:38N 38°55' W 090°15'0 0.0
2017-Sep-04 05:27N 38°55' W 090°15'0 0.0
2017-Sep-04 04:22N 38°55' W 090°15'0 0.0
2017-Sep-04 03:49N 38°55' W 090°15'0 0.0
2017-Sep-04 03:19N 38°55' W 090°15'0 0.1
2017-Sep-04 02:59N 38°55' W 090°15'  
Track history (hours):
 
Tides and Currents Weather Stations Pressure Air Temp Water Temp Dewpoint Dewpoint Depression Visibility Wind Speed Wind Dir Waves Ship Positions

Prairie Dawn

Owner: American River Transportation Company, St Louis, MO. More information available from US FCC via Universal Licensing System and Coast Guard Vessel Documentation Center.

Last reported at 2017-Sep-10 03:11 UTC. Time now 2017-Sep-22 22:41 UTC.
Position N 40°42' W 091°07'.
Warning: this ship's position is 12 days out of date.

Length 33 m; draft 2.7 m.

Type: Towing. MMSI: 366988190.

Date/timePositionNaut miles runAvg speedWind from/ knotsBaromVisibWave heightAir tempDewpointWater temp
2017-Sep-10 03:11N 40°42' W 091°07'1 4.7
2017-Sep-10 02:54N 40°43' W 091°07'2 4.8
2017-Sep-10 02:29N 40°45' W 091°06'2 4.8
2017-Sep-10 02:00N 40°47' W 091°06'2 4.8
2017-Sep-10 01:30N 40°50' W 091°05'2 4.4
2017-Sep-10 01:00N 40°52' W 091°03'2 3.7
2017-Sep-10 00:30N 40°53' W 091°01'0 0.8
2017-Sep-10 00:00N 40°53' W 091°01'0 0.3
2017-Sep-09 23:30N 40°53' W 091°01'0 0.0
2017-Sep-09 23:00N 40°53' W 091°01'0 0.0
2017-Sep-09 22:30N 40°53' W 091°01'1 2.2
2017-Sep-09 22:00N 40°54' W 091°00'2 4.5
2017-Sep-09 21:30N 40°55' W 090°58'3 5.1
2017-Sep-09 21:00N 40°58' W 090°57'2 4.9
2017-Sep-09 20:30N 41°00' W 090°57'3 5.2
2017-Sep-09 20:00N 41°03' W 090°57'3 4.9
2017-Sep-09 19:30N 41°05' W 090°57'2 0.7
2017-Sep-09 16:24N 41°07' W 090°58'2 4.1
2017-Sep-09 16:00N 41°06' W 090°57'2 4.2
2017-Sep-09 15:28N 41°04' W 090°57'2 4.3
2017-Sep-09 14:55N 41°01' W 090°57'2 4.2
2017-Sep-09 14:30N 40°60' W 090°57'1 2.6
2017-Sep-09 14:00N 40°58' W 090°58'2 3.1
2017-Sep-09 13:30N 40°57' W 090°57'2 4.3
2017-Sep-09 13:00N 40°55' W 090°58'2 4.7
2017-Sep-09 12:30N 40°54' W 091°01'1 2.0
2017-Sep-09 11:59N 40°53' W 091°02'2 4.4
2017-Sep-09 11:30N 40°51' W 091°03'2 3.1
2017-Sep-09 11:00N 40°50' W 091°05'0 0.1
2017-Sep-09 10:30N 40°50' W 091°05'2 3.6
2017-Sep-09 10:00N 40°48' W 091°06'2 4.4
2017-Sep-09 09:30N 40°46' W 091°06'2 4.4
2017-Sep-09 09:00N 40°44' W 091°07'2 4.1
2017-Sep-09 08:30N 40°42' W 091°07'3 4.0
2017-Sep-09 07:40N 40°39' W 091°09'2 4.4
2017-Sep-09 07:19N 40°39' W 091°11'2 4.3
2017-Sep-09 06:51N 40°38' W 091°14'  
2017-Sep-06 11:48N 38°52' W 090°33'2 4.9
2017-Sep-06 11:29N 38°53' W 090°32'2 4.5
2017-Sep-06 11:00N 38°55' W 090°30'1 2.0
2017-Sep-06 10:30N 38°56' W 090°29'2 4.0
2017-Sep-06 10:00N 38°57' W 090°28'2 4.3
2017-Sep-06 09:30N 38°58' W 090°25'2 4.2
2017-Sep-06 09:00N 38°57' W 090°22'2 4.4
2017-Sep-06 08:30N 38°56' W 090°20'2 4.3
2017-Sep-06 08:00N 38°55' W 090°17'2 4.5
2017-Sep-06 07:30N 38°55' W 090°14'2 4.5
2017-Sep-06 07:00N 38°54' W 090°12'2 4.5
2017-Sep-06 06:29N 38°52' W 090°10'3 0.1
2017-Sep-04 16:04N 38°54' W 090°13'2 3.8
2017-Sep-04 15:40N 38°55' W 090°14'1 2.9
2017-Sep-04 15:27N 38°55' W 090°15'0 0.0
2017-Sep-04 13:01N 38°55' W 090°15'0 0.0
2017-Sep-04 12:56N 38°55' W 090°15'0 0.0
2017-Sep-04 12:27N 38°55' W 090°15'0 0.0
2017-Sep-04 11:58N 38°55' W 090°15'0 0.0
2017-Sep-04 11:28N 38°55' W 090°15'0 0.0
2017-Sep-04 10:58N 38°55' W 090°15'0 0.0
2017-Sep-04 10:30N 38°55' W 090°15'0 0.0
2017-Sep-04 09:58N 38°55' W 090°15'0 0.0
2017-Sep-04 09:29N 38°55' W 090°15'0 0.0
2017-Sep-04 09:00N 38°55' W 090°15'0 0.0
2017-Sep-04 08:30N 38°55' W 090°15'0 0.0
2017-Sep-04 08:00N 38°55' W 090°15'0 0.0
2017-Sep-04 07:29N 38°55' W 090°15'0 0.0
2017-Sep-04 06:58N 38°55' W 090°15'0 0.0
2017-Sep-04 06:21N 38°55' W 090°15'0 0.0
2017-Sep-04 05:38N 38°55' W 090°15'0 0.0
2017-Sep-04 05:27N 38°55' W 090°15'0 0.0
2017-Sep-04 04:22N 38°55' W 090°15'0 0.0
2017-Sep-04 03:49N 38°55' W 090°15'0 0.0
2017-Sep-04 03:19N 38°55' W 090°15'0 0.1
2017-Sep-04 02:59N 38°55' W 090°15'  

Dump ship's entire track history